• Join FlightAware (Why Join?)
  • Login
  • US Flag 
04:57PM EST


 

Airport Tracker/Info


-or-


 

Live Flight TrackerFlight Track Log ✈ UCA3596 ✈ 14-Oct-2013 ✈ KIAD - KBGM

Flight Track Log - Related Links

Times and Time Zones

All times are in EDT time to prevent confusion due to time zone crossing. See the UCA3596 flight status page for this flight to view local times or setup timezone preferences in your user account.

Time Position Orientation Groundspeed Altitude Reporting Facility
EDT Latitude Longitude Course Direction KTS MPH feet Rate Location/Type
01:17PM 39.2685 -77.3208 19° North  Level Estimated
01:18PM 39.3327 -77.2928 19° North  Level Estimated
01:19PM 39.3969 -77.2647 19° North  Level Estimated
01:20PM 39.4611 -77.2366 19° North  Level Estimated
01:21PM 39.5253 -77.2085 19° North  Level Estimated
01:22PM 39.5895 -77.1803 19° North  Level Estimated
01:23PM 39.6536 -77.1521 19° North  Level Estimated
01:24PM 39.7178 -77.1238 19° North  Level Estimated
01:25PM 39.7819 -77.0954 19° North  Level Estimated
01:26PM 39.8461 -77.0670 19° North  Level Estimated
01:27PM 39.9102 -77.0386 19° North  Level Estimated
01:28PM 39.9743 -77.0100 19° North  Level Estimated
01:29PM 40.0384 -76.9815 19° North  Level Estimated
01:30PM 40.1026 -76.9529 19° North  Level Estimated
01:31PM 40.1667 -76.9242 19° North  Level Estimated
01:32PM 40.2308 -76.8955 19° North  Level Estimated
01:33PM 40.2949 -76.8667 19° North  Level Estimated
01:34PM 40.3590 -76.8379 19° North  Level Estimated
01:35PM 40.4230 -76.8090 19° North  Level Estimated
01:36PM 40.4871 -76.7800 19° North  Level Estimated
01:37PM 40.5512 -76.7510 19° North  Level Estimated
01:38PM 40.6152 -76.7220 19° North  Level Estimated
01:39PM 40.6793 -76.6928 19° North  Level Estimated
01:40PM 40.7433 -76.6637 19° North  Level Estimated
01:41PM 40.8074 -76.6345 19° North  Level Estimated
01:42PM 40.8714 -76.6052 19° North  Level Estimated
01:43PM 40.9354 -76.5758 19° North  Level Estimated
01:44PM 40.9994 -76.5464 19° North  Level Estimated
01:45PM 41.0634 -76.5170 19° North  Level Estimated
01:46PM 41.1274 -76.4875 19° North  Level Estimated
01:47PM 41.1914 -76.4579 19° North  Level Estimated
01:48PM 41.2554 -76.4283 19° North  Level Estimated
01:49PM 41.3194 -76.3986 19° North  Level Estimated
01:50PM 41.3834 -76.3689 19° North  Level Estimated
01:51PM 41.4473 -76.3391 19° North  Level Estimated
01:52PM 41.5113 -76.3092 19° North  Level Estimated
01:53PM 41.5752 -76.2793 19° North  Level Estimated
01:54PM 41.6392 -76.2493 19° North  Level Estimated
01:55PM 41.7031 -76.2193 19° North  Level Estimated
01:56PM 41.7670 -76.1892 19° North  Level Estimated
01:57PM 41.8309 -76.1590 19° North  Level Estimated
01:58PM 41.8948 -76.1288 19° North  Level Estimated
01:59PM 41.9587 -76.0985 19° North  Level Estimated
02:00PM 42.0226 -76.0682 19° North  Level Estimated
02:01PM 42.0865 -76.0378 19° North  Level Estimated
02:02PM 42.1504 -76.0073 19° North  Level Estimated
02:03PM 42.2084 -75.9796 19° North  Level Estimated
02:04PM 42.2084 -75.9796 35° Northeast  Level Estimated
02:05PM 42.2084 -75.9796 35° Northeast  Level Estimated
02:06PM 42.2084 -75.9796 35° Northeast  Level Estimated
02:07PM 42.2084 -75.9796 35° Northeast  Level Estimated
02:08PM 42.2084 -75.9796 35° Northeast  Level Estimated
02:09PM 42.2084 -75.9796 35° Northeast  Level Estimated
02:10PM 42.2084 -75.9796 35° Northeast  Level Estimated
02:11PM 42.2084 -75.9796 35° Northeast  Level Estimated
02:12PM 42.2084 -75.9796 35° Northeast  Level Estimated
02:13PM 42.2084 -75.9796 35° Northeast  Level Estimated
02:14PM 42.2084 -75.9796 35° Northeast  Level Estimated
02:15PM 42.2084 -75.9796 35° Northeast  Level Estimated
02:16PM 42.2084 -75.9796 35° Northeast  Level Estimated
02:17PM 42.2084 -75.9796 35° Northeast  Level Estimated
02:18PM 42.2084 -75.9796 35° Northeast  Level Estimated
02:19PM 42.2084 -75.9796 35° Northeast  Level Estimated